Time;durP1;ratioP1;P1;durP2;ratioP2;P2;SDS_P1;SDS_P2;PMS_P1;PMS_P2;Temp;Humidity;BMP_temperature;BMP_pressure;BME280_temperature;BME280_humidity;BME280_pressure;Samples;Min_cycle;Max_cycle;Signal;HPM_P1;HPM_P2
2022/03/13 00:00:26;;;;;;;;;;;;;;;22.02;13.52;98835.59;4976441;28;1935;-72
2022/03/13 00:02:54;;;;;;;;;;;;;;;22.23;13.22;98840.97;4976508;28;952;-72
2022/03/13 00:05:19;;;;;;;;;;;;;;;22.25;13.52;98830.00;4937802;29;1336;-72
2022/03/13 00:07:45;;;;;;;;;;;;;;;22.51;13.50;98833.22;4937739;29;1249;-72
2022/03/13 00:10:11;;;;;;;;;;;;;;;22.54;13.30;98835.22;4937740;29;989;-72
2022/03/13 00:12:38;;;;;;;;;;;;;;;21.94;13.77;98822.75;4937944;29;969;-72
2022/03/13 00:15:10;;;;;;;;;;;;;;;21.90;13.51;98819.19;4937860;29;1025;-72
2022/03/13 00:17:36;;;;;;;;;;;;;;;21.95;13.47;98821.53;4937965;29;885;-72
2022/03/13 00:20:03;;;;;;;;;;;;;;;22.28;13.60;98814.16;4937375;29;1907;-72
2022/03/13 00:22:29;;;;;;;;;;;;;;;22.27;13.25;98821.84;4937689;29;992;-72
2022/03/13 00:24:54;;;;;;;;;;;;;;;22.34;13.07;98813.25;4937663;29;977;-72
2022/03/13 00:27:20;;;;;;;;;;;;;;;22.29;13.11;98808.06;4937623;29;1049;-72
2022/03/13 00:29:45;;;;;;;;;;;;;;;21.93;13.57;98801.34;4937218;29;1391;-72
2022/03/13 00:32:12;;;;;;;;;;;;;;;21.87;13.50;98803.84;4937374;29;1077;-72
2022/03/13 00:34:40;;;;;;;;;;;;;;;22.39;13.36;98805.50;4946301;28;883;-72
2022/03/13 00:37:06;;;;;;;;;;;;;;;22.33;13.36;98805.97;4993479;28;968;-72
2022/03/13 00:39:31;;;;;;;;;;;;;;;22.20;13.58;98804.97;4997871;28;903;-72
2022/03/13 00:41:57;;;;;;;;;;;;;;;22.26;13.20;98796.78;4997753;28;1989;-72
2022/03/13 00:44:22;;;;;;;;;;;;;;;21.98;13.52;98798.03;4997218;28;918;-72
2022/03/13 00:46:48;;;;;;;;;;;;;;;22.25;13.67;98801.66;4997744;28;1003;-72
2022/03/13 00:49:13;;;;;;;;;;;;;;;22.34;13.56;98799.06;4997369;28;913;-72
2022/03/13 00:51:38;;;;;;;;;;;;;;;21.82;13.92;98790.16;4997582;28;983;-72
2022/03/13 00:54:04;;;;;;;;;;;;;;;21.67;13.71;98788.78;4997044;28;961;-73
2022/03/13 00:56:30;;;;;;;;;;;;;;;22.17;13.66;98785.97;4997081;28;1059;-72
2022/03/13 00:58:55;;;;;;;;;;;;;;;22.08;13.68;98786.50;4997346;28;1004;-72
2022/03/13 01:01:21;;;;;;;;;;;;;;;21.64;14.01;98790.41;4997401;28;1918;-72
2022/03/13 01:03:47;;;;;;;;;;;;;;;21.93;13.89;98792.84;4996890;28;968;-72
2022/03/13 01:06:13;;;;;;;;;;;;;;;21.90;13.64;98790.84;4996928;28;1045;-72
2022/03/13 01:08:40;;;;;;;;;;;;;;;21.94;13.84;98791.59;4997076;28;942;-72
2022/03/13 01:11:06;;;;;;;;;;;;;;;22.06;13.50;98782.50;4996912;28;977;-72
2022/03/13 01:13:31;;;;;;;;;;;;;;;22.70;13.12;98789.94;4996626;28;930;-72
2022/03/13 01:16:00;;;;;;;;;;;;;;;22.00;13.51;98789.88;4997374;28;849;-72
2022/03/13 01:18:26;;;;;;;;;;;;;;;22.11;13.23;98790.53;4997069;28;1095;-72
2022/03/13 01:20:51;;;;;;;;;;;;;;;22.23;13.26;98786.31;4996732;28;1914;-72
2022/03/13 01:23:17;;;;;;;;;;;;;;;21.93;13.59;98784.34;4996936;28;967;-72
2022/03/13 01:25:42;;;;;;;;;;;;;;;22.08;13.63;98780.03;4996608;28;896;-72
2022/03/13 01:28:08;;;;;;;;;;;;;;;22.52;13.30;98775.25;4996529;28;1042;-72
2022/03/13 01:30:33;;;;;;;;;;;;;;;22.38;13.04;98778.34;4974701;28;957;-72
2022/03/13 01:32:59;;;;;;;;;;;;;;;22.02;13.56;98770.41;4974982;28;1078;-72
2022/03/13 01:35:24;;;;;;;;;;;;;;;21.59;13.75;98766.19;4974703;28;981;-72
2022/03/13 01:37:50;;;;;;;;;;;;;;;22.27;13.47;98765.16;4958672;28;1090;-72
2022/03/13 01:40:22;;;;;;;;;;;;;;;22.04;13.69;98762.28;4974896;28;2110;-72
2022/03/13 01:42:48;;;;;;;;;;;;;;;22.50;13.27;98760.72;4974558;28;1062;-72
2022/03/13 01:45:17;;;;;;;;;;;;;;;21.97;13.45;98756.75;4974964;28;965;-72
2022/03/13 01:47:43;;;;;;;;;;;;;;;22.65;13.12;98756.38;4974517;28;991;-72
2022/03/13 01:50:09;;;;;;;;;;;;;;;22.43;13.33;98760.84;4975136;28;1015;-72
2022/03/13 01:52:35;;;;;;;;;;;;;;;22.14;13.63;98755.69;4958731;28;1009;-72
2022/03/13 01:55:00;;;;;;;;;;;;;;;22.44;13.26;98756.78;4974759;28;1027;-72
2022/03/13 01:57:26;;;;;;;;;;;;;;;22.51;13.00;98760.28;4974603;28;953;-72
2022/03/13 01:59:57;;;;;;;;;;;;;;;22.02;13.57;98756.22;4974949;28;1075;-72
2022/03/13 02:02:23;;;;;;;;;;;;;;;22.13;13.54;98761.78;4993067;28;1968;-72
2022/03/13 02:04:52;;;;;;;;;;;;;;;22.41;13.28;98766.16;4995999;28;926;-72
2022/03/13 02:07:18;;;;;;;;;;;;;;;22.28;13.31;98758.28;4996136;28;969;-72
2022/03/13 02:09:44;;;;;;;;;;;;;;;22.32;13.46;98767.50;4995910;28;1010;-72
2022/03/13 02:12:10;;;;;;;;;;;;;;;21.88;13.48;98759.31;4981577;28;928;-72
2022/03/13 02:14:35;;;;;;;;;;;;;;;21.63;13.98;98749.16;5000239;28;956;-72
2022/03/13 02:17:01;;;;;;;;;;;;;;;22.02;13.75;98756.22;5000387;28;962;-72
2022/03/13 02:19:26;;;;;;;;;;;;;;;21.99;13.63;98749.41;5000299;28;920;-72
2022/03/13 02:21:53;;;;;;;;;;;;;;;21.97;13.55;98751.09;5000240;28;1975;-72
2022/03/13 02:24:22;;;;;;;;;;;;;;;22.33;13.40;98752.09;4982381;28;994;-72
2022/03/13 02:26:55;;;;;;;;;;;;;;;21.67;14.02;98747.09;5000409;28;823;-72
2022/03/13 02:29:20;;;;;;;;;;;;;;;21.73;13.72;98736.88;5000394;28;951;-72
2022/03/13 02:31:46;;;;;;;;;;;;;;;21.79;13.91;98746.47;5000259;28;1002;-73
2022/03/13 02:34:13;;;;;;;;;;;;;;;21.76;13.72;98746.53;5000221;28;924;-72
2022/03/13 02:36:41;;;;;;;;;;;;;;;22.01;13.46;98746.13;5000194;28;1157;-72
2022/03/13 02:39:07;;;;;;;;;;;;;;;22.28;13.08;98749.78;4978291;28;968;-72
2022/03/13 02:41:33;;;;;;;;;;;;;;;22.19;13.36;98752.34;4958296;29;1907;-72
2022/03/13 02:43:59;;;;;;;;;;;;;;;22.02;13.51;98747.72;4920586;29;1064;-72
2022/03/13 02:46:25;;;;;;;;;;;;;;;22.18;13.47;98747.91;4920690;29;939;-72
2022/03/13 02:48:51;;;;;;;;;;;;;;;22.36;13.42;98739.88;4917969;29;989;-72
2022/03/13 02:51:16;;;;;;;;;;;;;;;22.20;13.34;98748.28;4920803;29;1091;-72
2022/03/13 02:53:42;;;;;;;;;;;;;;;22.17;13.20;98749.13;4888617;29;1043;-72
2022/03/13 02:56:08;;;;;;;;;;;;;;;22.03;13.80;98738.81;4920704;29;1028;-72
2022/03/13 02:58:33;;;;;;;;;;;;;;;22.28;13.18;98743.28;4920496;29;1013;-72
2022/03/13 03:00:59;;;;;;;;;;;;;;;22.43;13.23;98752.31;4904479;29;1992;-72
2022/03/13 03:03:24;;;;;;;;;;;;;;;22.33;13.52;98752.09;4920155;29;1066;-72
2022/03/13 03:05:50;;;;;;;;;;;;;;;21.96;13.69;98750.25;4920033;29;974;-72
2022/03/13 03:08:16;;;;;;;;;;;;;;;22.75;13.17;98738.38;4920402;29;1016;-72
2022/03/13 03:10:42;;;;;;;;;;;;;;;22.43;13.25;98738.16;4934555;29;1060;-72
2022/03/13 03:13:09;;;;;;;;;;;;;;;22.14;13.29;98750.00;4953871;29;1035;-72
2022/03/13 03:15:35;;;;;;;;;;;;;;;21.87;13.72;98740.72;4989523;28;1092;-72
2022/03/13 03:18:01;;;;;;;;;;;;;;;21.74;13.67;98743.34;4999438;28;901;-72
2022/03/13 03:20:27;;;;;;;;;;;;;;;22.03;13.63;98743.69;4999299;28;1978;-72
2022/03/13 03:22:52;;;;;;;;;;;;;;;21.75;13.48;98734.41;4997717;28;891;-72
2022/03/13 03:25:22;;;;;;;;;;;;;;;22.31;13.45;98740.38;4999461;28;886;-72
2022/03/13 03:27:48;;;;;;;;;;;;;;;22.14;13.29;98744.34;4999467;28;1098;-72
2022/03/13 03:30:14;;;;;;;;;;;;;;;22.00;13.65;98738.88;4999405;28;959;-72
2022/03/13 03:32:39;;;;;;;;;;;;;;;22.22;13.15;98737.28;4998858;28;1305;-73
2022/03/13 03:35:05;;;;;;;;;;;;;;;21.91;13.69;98741.44;4998681;28;1523;-72
2022/03/13 03:37:34;;;;;;;;;;;;;;;22.44;13.16;98739.78;4998476;28;1278;-72
2022/03/13 03:39:59;;;;;;;;;;;;;;;21.57;14.03;98736.72;4995758;28;1632;-72
2022/03/13 03:42:25;;;;;;;;;;;;;;;22.49;13.08;98742.13;4998513;28;1914;-72
2022/03/13 03:44:50;;;;;;;;;;;;;;;22.74;12.93;98735.94;4999075;28;1569;-72
2022/03/13 03:47:16;;;;;;;;;;;;;;;22.14;13.34;98727.34;4998050;28;1537;-72
2022/03/13 03:49:42;;;;;;;;;;;;;;;22.51;12.94;98739.63;4998539;28;1490;-72
2022/03/13 03:52:07;;;;;;;;;;;;;;;22.18;13.19;98739.41;4998368;28;1328;-72
2022/03/13 03:54:33;;;;;;;;;;;;;;;22.02;13.37;98736.41;4997966;28;1525;-73
2022/03/13 03:56:59;;;;;;;;;;;;;;;22.28;13.30;98741.25;4998446;28;1457;-72
2022/03/13 03:59:24;;;;;;;;;;;;;;;22.37;13.10;98740.69;4998285;28;1336;-72
2022/03/13 04:01:50;;;;;;;;;;;;;;;22.53;13.24;98754.97;4998137;28;1973;-72
2022/03/13 04:04:15;;;;;;;;;;;;;;;21.95;13.65;98745.03;4998262;28;1471;-72
2022/03/13 04:06:41;;;;;;;;;;;;;;;21.85;13.60;98752.47;4998044;28;1470;-72
2022/03/13 04:09:07;;;;;;;;;;;;;;;22.28;13.45;98749.78;4998345;28;1510;-72
2022/03/13 04:11:33;;;;;;;;;;;;;;;22.33;13.31;98752.09;4998108;28;1470;-72
2022/03/13 04:13:58;;;;;;;;;;;;;;;21.91;13.67;98747.09;4998113;28;1488;-72
2022/03/13 04:16:24;;;;;;;;;;;;;;;22.24;13.39;98753.91;4979620;28;1071;-72
2022/03/13 04:18:49;;;;;;;;;;;;;;;21.81;13.78;98755.38;4998288;28;906;-72
2022/03/13 04:21:15;;;;;;;;;;;;;;;22.33;13.12;98752.09;4998297;28;1981;-72
2022/03/13 04:23:40;;;;;;;;;;;;;;;22.12;13.42;98752.44;4998347;28;1055;-72
2022/03/13 04:26:06;;;;;;;;;;;;;;;22.00;13.59;98744.53;4998234;28;957;-72
2022/03/13 04:28:32;;;;;;;;;;;;;;;22.25;13.46;98744.94;4998301;28;928;-73
2022/03/13 04:31:00;;;;;;;;;;;;;;;21.83;13.85;98740.78;4998071;28;908;-72
2022/03/13 04:33:28;;;;;;;;;;;;;;;22.77;13.04;98747.22;4997543;28;1083;-72
2022/03/13 04:36:00;;;;;;;;;;;;;;;22.58;13.25;98759.34;4998028;28;974;-72
2022/03/13 04:38:27;;;;;;;;;;;;;;;22.05;13.61;98752.56;4979660;28;1120;-72
2022/03/13 04:40:53;;;;;;;;;;;;;;;22.14;13.53;98752.84;4997418;28;1902;-72
2022/03/13 04:43:18;;;;;;;;;;;;;;;22.19;13.19;98752.34;4997544;28;1049;-72
2022/03/13 04:45:44;;;;;;;;;;;;;;;22.30;13.44;98758.63;4997698;28;940;-72
2022/03/13 04:48:10;;;;;;;;;;;;;;;21.96;13.73;98755.13;4997681;28;950;-72
2022/03/13 04:50:36;;;;;;;;;;;;;;;22.60;13.38;98765.41;4997895;28;945;-72
2022/03/13 04:53:01;;;;;;;;;;;;;;;22.11;13.53;98753.69;4997575;28;1628;-72
2022/03/13 04:55:26;;;;;;;;;;;;;;;22.63;13.15;98759.63;4997872;28;952;-72
2022/03/13 04:57:52;;;;;;;;;;;;;;;22.14;13.67;98752.84;4995189;28;1102;-72
2022/03/13 05:00:18;;;;;;;;;;;;;;;22.04;13.76;98762.28;4997347;28;1974;-72
2022/03/13 05:02:44;;;;;;;;;;;;;;;21.61;14.14;98762.97;4997450;28;928;-72
2022/03/13 05:05:10;;;;;;;;;;;;;;;21.93;13.60;98761.66;4997546;28;969;-72
2022/03/13 05:07:38;;;;;;;;;;;;;;;22.13;13.59;98762.59;4997603;28;929;-72
2022/03/13 05:10:04;;;;;;;;;;;;;;;22.13;13.43;98768.25;4997062;28;1277;-72
2022/03/13 05:12:29;;;;;;;;;;;;;;;22.27;13.42;98762.31;4997337;28;908;-72
2022/03/13 05:14:55;;;;;;;;;;;;;;;22.60;13.30;98765.41;4997093;28;922;-72
2022/03/13 05:17:20;;;;;;;;;;;;;;;22.56;13.40;98771.13;4997183;28;857;-72
2022/03/13 05:19:46;;;;;;;;;;;;;;;22.70;13.12;98764.41;4997163;28;921;-72
2022/03/13 05:22:11;;;;;;;;;;;;;;;22.59;13.10;98766.63;4997235;28;1911;-73
2022/03/13 05:24:37;;;;;;;;;;;;;;;22.61;13.29;98767.00;4997070;28;1205;-72
2022/03/13 05:27:02;;;;;;;;;;;;;;;22.25;13.41;98770.47;4996692;28;958;-72
2022/03/13 05:29:28;;;;;;;;;;;;;;;22.03;13.69;98766.38;4995064;28;999;-72
2022/03/13 05:31:53;;;;;;;;;;;;;;;22.35;13.30;98766.63;4997210;28;1012;-72
2022/03/13 05:34:19;;;;;;;;;;;;;;;22.62;13.38;98769.38;4997384;28;997;-72
2022/03/13 05:36:46;;;;;;;;;;;;;;;22.74;13.07;98765.13;4997253;28;938;-72
2022/03/13 05:39:11;;;;;;;;;;;;;;;22.64;13.04;98771.81;4997108;28;933;-72
2022/03/13 05:41:39;;;;;;;;;;;;;;;22.21;13.60;98778.22;4996957;28;1910;-72
2022/03/13 05:44:05;;;;;;;;;;;;;;;21.94;13.50;98769.72;4996807;28;1136;-72
2022/03/13 05:46:30;;;;;;;;;;;;;;;21.82;13.78;98773.97;4995883;28;974;-72
2022/03/13 05:48:56;;;;;;;;;;;;;;;22.28;13.38;98772.44;4997191;28;1185;-72
2022/03/13 05:51:21;;;;;;;;;;;;;;;22.65;13.33;98781.91;4996885;28;906;-72
2022/03/13 05:53:47;;;;;;;;;;;;;;;22.82;12.80;98777.94;4996809;28;963;-72
2022/03/13 05:56:13;;;;;;;;;;;;;;;22.42;13.38;98781.91;4996589;28;946;-72
2022/03/13 05:58:38;;;;;;;;;;;;;;;22.21;13.42;98791.59;4996669;28;915;-72
2022/03/13 06:01:05;;;;;;;;;;;;;;;22.18;13.75;98790.44;4996883;28;1910;-72
2022/03/13 06:03:31;;;;;;;;;;;;;;;22.43;13.39;98784.31;4996900;28;1005;-72
2022/03/13 06:05:57;;;;;;;;;;;;;;;22.44;13.28;98796.50;4955687;29;946;-72
2022/03/13 06:08:23;;;;;;;;;;;;;;;22.61;13.01;98790.47;4955720;29;985;-71
2022/03/13 06:10:48;;;;;;;;;;;;;;;22.30;13.25;98798.31;4955587;29;1123;-72
2022/03/13 06:13:14;;;;;;;;;;;;;;;22.30;13.39;98803.19;4955459;29;1072;-72
2022/03/13 06:15:39;;;;;;;;;;;;;;;22.55;13.54;98799.94;4939474;28;1331;-72
2022/03/13 06:18:05;;;;;;;;;;;;;;;22.35;13.59;98795.00;4955823;29;963;-72
2022/03/13 06:20:31;;;;;;;;;;;;;;;22.20;13.46;98793.63;4955643;29;1911;-72
2022/03/13 06:22:57;;;;;;;;;;;;;;;22.15;13.73;98799.78;4955743;29;1030;-72
2022/03/13 06:25:23;;;;;;;;;;;;;;;22.17;13.60;98799.34;4955426;29;1064;-72
2022/03/13 06:27:48;;;;;;;;;;;;;;;22.41;13.45;98803.00;4955501;29;1017;-72
2022/03/13 06:30:14;;;;;;;;;;;;;;;22.13;13.47;98799.44;4955271;29;1011;-72
2022/03/13 06:32:40;;;;;;;;;;;;;;;21.91;13.93;98792.44;4955485;29;968;-71
2022/03/13 06:35:06;;;;;;;;;;;;;;;22.24;13.57;98796.41;4936152;29;994;-71
2022/03/13 06:37:32;;;;;;;;;;;;;;;22.50;13.40;98800.44;4950414;29;1032;-72
2022/03/13 06:39:57;;;;;;;;;;;;;;;22.46;13.55;98809.00;4955391;29;1027;-72
2022/03/13 06:42:23;;;;;;;;;;;;;;;22.54;13.56;98804.81;4954840;28;1982;-72
2022/03/13 06:44:49;;;;;;;;;;;;;;;22.38;13.48;98803.84;4955428;28;1054;-72
2022/03/13 06:47:15;;;;;;;;;;;;;;;22.07;13.70;98806.75;4955430;29;1064;-72
2022/03/13 06:49:41;;;;;;;;;;;;;;;22.79;13.18;98795.81;4955303;29;1101;-72
2022/03/13 06:52:07;;;;;;;;;;;;;;;22.61;13.31;98801.03;4955555;29;1041;-72
2022/03/13 06:54:32;;;;;;;;;;;;;;;21.91;14.04;98798.91;4954988;29;916;-72
2022/03/13 06:56:58;;;;;;;;;;;;;;;22.07;13.92;98806.75;4956537;28;1002;-72
2022/03/13 06:59:23;;;;;;;;;;;;;;;22.44;13.47;98807.84;4958411;29;1080;-72
2022/03/13 07:01:49;;;;;;;;;;;;;;;22.50;13.38;98800.44;4958943;29;1989;-72
2022/03/13 07:04:15;;;;;;;;;;;;;;;22.54;13.56;98806.84;4958624;29;944;-72
2022/03/13 07:06:40;;;;;;;;;;;;;;;22.63;13.25;98804.22;4989268;28;1207;-71
2022/03/13 07:09:06;;;;;;;;;;;;;;;22.24;13.37;98808.56;4999699;28;941;-72
2022/03/13 07:11:34;;;;;;;;;;;;;;;22.16;13.56;98809.88;4999403;28;889;-71
2022/03/13 07:14:01;;;;;;;;;;;;;;;22.11;13.83;98807.53;4999505;28;1019;-72
2022/03/13 07:16:27;;;;;;;;;;;;;;;22.64;13.27;98814.38;4999656;28;1011;-72
2022/03/13 07:18:52;;;;;;;;;;;;;;;22.60;13.54;98813.63;4999487;28;986;-72
2022/03/13 07:21:17;;;;;;;;;;;;;;;22.07;13.80;98806.75;4999318;28;1988;-71
2022/03/13 07:23:43;;;;;;;;;;;;;;;22.47;13.35;98812.63;4999475;28;890;-72
2022/03/13 07:26:08;;;;;;;;;;;;;;;22.38;13.44;98816.00;4998845;28;943;-72
2022/03/13 07:28:36;;;;;;;;;;;;;;;22.40;13.42;98807.88;4999203;28;957;-72
2022/03/13 07:31:01;;;;;;;;;;;;;;;22.74;13.17;98813.38;4999501;28;935;-72
2022/03/13 07:33:27;;;;;;;;;;;;;;;22.27;13.70;98816.19;4998888;28;931;-72
2022/03/13 07:35:52;;;;;;;;;;;;;;;22.23;13.81;98814.66;4999160;28;971;-72
2022/03/13 07:38:17;;;;;;;;;;;;;;;21.85;13.78;98812.75;4999059;28;934;-72
2022/03/13 07:40:43;;;;;;;;;;;;;;;22.61;13.49;98809.53;4997065;28;2098;-72
2022/03/13 07:43:12;;;;;;;;;;;;;;;22.11;13.81;98813.22;4998995;28;1042;-72
2022/03/13 07:45:37;;;;;;;;;;;;;;;22.36;13.34;98812.81;4999096;28;958;-71
2022/03/13 07:48:03;;;;;;;;;;;;;;;22.81;13.06;98821.75;4998922;28;929;-72
2022/03/13 07:50:28;;;;;;;;;;;;;;;22.41;13.44;98820.03;4998889;28;846;-72
2022/03/13 07:52:54;;;;;;;;;;;;;;;22.30;13.73;98821.00;4999145;28;904;-71
2022/03/13 07:55:21;;;;;;;;;;;;;;;21.93;13.91;98818.34;4998247;28;964;-72
2022/03/13 07:57:46;;;;;;;;;;;;;;;22.17;13.79;98822.03;4998751;28;1058;-72
2022/03/13 08:00:12;;;;;;;;;;;;;;;22.20;13.86;98830.47;4998867;28;939;-72
2022/03/13 08:02:44;;;;;;;;;;;;;;;22.28;13.58;98829.16;4998355;28;1021;-72
2022/03/13 08:05:10;;;;;;;;;;;;;;;22.21;13.64;98819.94;4998607;28;976;-72
2022/03/13 08:07:35;;;;;;;;;;;;;;;22.33;13.63;98831.50;4998009;28;921;-72
2022/03/13 08:10:01;;;;;;;;;;;;;;;22.21;13.61;98828.44;4996110;28;921;-72
2022/03/13 08:12:28;;;;;;;;;;;;;;;22.55;13.54;98833.97;4996100;28;1167;-72
2022/03/13 08:14:53;;;;;;;;;;;;;;;22.67;13.35;98827.66;4998664;28;982;-72
2022/03/13 08:17:18;;;;;;;;;;;;;;;22.18;13.60;98827.28;4998109;28;975;-71
2022/03/13 08:19:44;;;;;;;;;;;;;;;22.33;13.65;98831.50;4979990;28;1083;-72
2022/03/13 08:22:09;;;;;;;;;;;;;;;22.23;13.71;98838.13;4998055;28;1985;-72
2022/03/13 08:24:35;;;;;;;;;;;;;;;22.35;13.47;98839.56;4998000;28;1050;-71
2022/03/13 08:27:00;;;;;;;;;;;;;;;22.30;13.89;98832.34;4997758;28;981;-72
2022/03/13 08:29:26;;;;;;;;;;;;;;;22.43;13.61;98837.41;4998094;28;932;-72
2022/03/13 08:31:51;;;;;;;;;;;;;;;22.33;13.70;98837.16;4998403;28;946;-72
2022/03/13 08:34:17;;;;;;;;;;;;;;;22.34;13.38;98840.81;4998252;28;1011;-71
2022/03/13 08:36:44;;;;;;;;;;;;;;;22.49;13.51;98839.34;4998416;28;917;-72
2022/03/13 08:39:09;;;;;;;;;;;;;;;22.91;13.36;98836.19;4998017;28;863;-72
2022/03/13 08:41:35;;;;;;;;;;;;;;;22.49;13.42;98838.53;4997787;28;1981;-72
2022/03/13 08:44:00;;;;;;;;;;;;;;;22.08;13.64;98837.53;4998209;28;933;-71
2022/03/13 08:46:26;;;;;;;;;;;;;;;22.36;13.89;98841.16;4998174;28;923;-72
2022/03/13 08:48:51;;;;;;;;;;;;;;;22.23;13.93;98838.13;4997929;28;979;-72
2022/03/13 08:51:18;;;;;;;;;;;;;;;22.03;13.89;98845.72;4997983;28;867;-71
2022/03/13 08:53:44;;;;;;;;;;;;;;;22.07;13.74;98843.59;4995087;28;1022;-72
2022/03/13 08:56:10;;;;;;;;;;;;;;;22.52;13.66;98851.84;4995466;28;897;-72
2022/03/13 08:58:35;;;;;;;;;;;;;;;22.72;13.19;98835.69;4995566;28;1035;-72
2022/03/13 09:01:01;;;;;;;;;;;;;;;22.90;13.07;98845.91;4995215;28;1907;-72
2022/03/13 09:03:26;;;;;;;;;;;;;;;22.48;13.46;98853.91;4995308;28;973;-72
2022/03/13 09:05:53;;;;;;;;;;;;;;;22.68;13.63;98846.28;4994981;28;981;-72
2022/03/13 09:08:19;;;;;;;;;;;;;;;22.45;13.69;98840.63;4995303;28;985;-72
2022/03/13 09:10:44;;;;;;;;;;;;;;;22.54;13.45;98847.34;4995137;28;952;-72
2022/03/13 09:13:10;;;;;;;;;;;;;;;22.31;13.88;98850.94;4994957;28;972;-71
2022/03/13 09:15:37;;;;;;;;;;;;;;;22.69;13.53;98845.06;4978728;28;946;-72
2022/03/13 09:18:02;;;;;;;;;;;;;;;22.59;13.68;98848.91;4995124;28;1025;-72
2022/03/13 09:20:28;;;;;;;;;;;;;;;22.33;13.65;98848.50;4994906;28;1915;-72
2022/03/13 09:22:53;;;;;;;;;;;;;;;22.35;13.58;98854.53;4995034;28;1118;-72
2022/03/13 09:25:20;;;;;;;;;;;;;;;22.35;13.92;98842.41;4996598;28;1006;-72
2022/03/13 09:27:45;;;;;;;;;;;;;;;22.62;13.52;98853.69;4997075;28;936;-72
2022/03/13 09:30:11;;;;;;;;;;;;;;;22.47;13.56;98840.97;4996822;28;1040;-72
2022/03/13 09:32:36;;;;;;;;;;;;;;;22.07;13.81;98852.09;4996728;28;1063;-72
2022/03/13 09:35:04;;;;;;;;;;;;;;;22.28;13.66;98840.50;4996752;28;963;-72
2022/03/13 09:37:30;;;;;;;;;;;;;;;22.42;13.83;98847.13;4978659;28;985;-72
2022/03/13 09:39:56;;;;;;;;;;;;;;;22.22;14.01;98847.84;4996568;28;941;-72
2022/03/13 09:42:22;;;;;;;;;;;;;;;22.12;13.99;98845.97;4996986;28;1914;-72
2022/03/13 09:44:47;;;;;;;;;;;;;;;22.06;14.20;98839.16;4996980;28;897;-72
2022/03/13 09:47:12;;;;;;;;;;;;;;;22.26;13.94;98842.94;4994400;28;990;-72
2022/03/13 09:49:41;;;;;;;;;;;;;;;22.28;14.08;98840.50;4962000;28;1027;-72
2022/03/13 09:52:07;;;;;;;;;;;;;;;22.26;13.61;98842.13;4936560;29;1015;-72
2022/03/13 09:54:34;;;;;;;;;;;;;;;22.29;13.89;98827.91;4936577;29;984;-72
2022/03/13 09:57:03;;;;;;;;;;;;;;;21.90;14.51;98833.34;4921157;29;973;-71
2022/03/13 09:59:28;;;;;;;;;;;;;;;22.57;13.86;98828.66;4936653;29;1045;-71
2022/03/13 10:01:53;;;;;;;;;;;;;;;22.23;13.74;98838.13;4917468;29;1902;-72
2022/03/13 10:04:19;;;;;;;;;;;;;;;22.81;13.65;98832.28;4901601;29;950;-72
2022/03/13 10:07:00;;;;;;;;;;;;;;;22.83;13.28;98829.81;4917567;29;1005;-72
2022/03/13 10:09:26;;;;;;;;;;;;;;;22.79;13.63;98824.19;4917593;29;986;-72
2022/03/13 10:12:02;;;;;;;;;;;;;;;22.90;13.44;98831.72;4898438;29;994;-72
2022/03/13 10:14:27;;;;;;;;;;;;;;;22.49;13.50;98838.53;4887217;29;2144;-72
2022/03/13 10:16:52;;;;;;;;;;;;;;;22.38;13.91;98838.69;4917536;29;1079;-72
2022/03/13 10:19:18;;;;;;;;;;;;;;;22.45;13.90;98834.94;4888234;29;992;-71
2022/03/13 10:22:02;;;;;;;;;;;;;;;22.20;14.12;98829.69;4936309;29;2054;-72
2022/03/13 10:24:31;;;;;;;;;;;;;;;22.48;13.82;98831.22;4975137;28;980;-72
2022/03/13 10:27:07;;;;;;;;;;;;;;;22.25;14.20;98832.84;4972075;28;934;-72
2022/03/13 10:29:33;;;;;;;;;;;;;;;22.39;14.02;98822.50;4960147;28;1648;-72
2022/03/13 10:31:58;;;;;;;;;;;;;;;21.97;14.32;98819.09;4959272;28;1567;-72
2022/03/13 10:34:24;;;;;;;;;;;;;;;22.06;14.13;98825.00;4962313;28;1271;-72
2022/03/13 10:36:50;;;;;;;;;;;;;;;22.42;13.77;98827.28;4978118;28;1022;-72
2022/03/13 10:39:18;;;;;;;;;;;;;;;22.43;13.83;98818.34;4978293;28;1035;-72
2022/03/13 10:41:47;;;;;;;;;;;;;;;22.12;13.82;98831.81;4962469;28;1985;-72
2022/03/13 10:44:21;;;;;;;;;;;;;;;22.40;13.70;98829.75;5000154;28;1100;-72
2022/03/13 10:47:02;;;;;;;;;;;;;;;22.43;14.02;98823.22;4999910;28;940;-72
2022/03/13 10:49:42;;;;;;;;;;;;;;;21.81;14.25;98828.19;5000467;28;936;-72
2022/03/13 10:52:26;;;;;;;;;;;;;;;22.01;14.33;98825.47;4982567;28;1026;-72
2022/03/13 10:54:55;;;;;;;;;;;;;;;21.97;14.38;98830.44;5000052;28;958;-72
2022/03/13 10:57:21;;;;;;;;;;;;;;;22.24;13.85;98821.94;4999794;28;912;-72
2022/03/13 11:00:05;;;;;;;;;;;;;;;22.28;14.02;98823.47;5000091;28;1060;-72
2022/03/13 11:02:31;;;;;;;;;;;;;;;22.36;14.16;98824.94;4999696;28;1898;-72
2022/03/13 11:04:57;;;;;;;;;;;;;;;22.03;13.94;98823.03;4999617;28;952;-71
2022/03/13 11:07:23;;;;;;;;;;;;;;;22.25;14.09;98812.97;4981428;28;1043;-71
2022/03/13 11:09:49;;;;;;;;;;;;;;;22.17;13.93;98817.16;4999826;28;948;-72
2022/03/13 11:12:17;;;;;;;;;;;;;;;22.43;13.97;98820.38;4981148;28;1052;-72
2022/03/13 11:14:48;;;;;;;;;;;;;;;22.57;13.67;98822.97;4999777;28;1045;-72
2022/03/13 11:17:14;;;;;;;;;;;;;;;22.13;14.29;98805.09;4999470;28;948;-72
2022/03/13 11:19:40;;;;;;;;;;;;;;;22.41;14.17;98809.47;4998294;28;994;-72
2022/03/13 11:22:06;;;;;;;;;;;;;;;22.60;13.68;98811.59;4999204;28;1914;-72
2022/03/13 11:24:31;;;;;;;;;;;;;;;22.06;13.93;98810.81;4998419;28;978;-71
2022/03/13 11:26:57;;;;;;;;;;;;;;;22.72;13.82;98818.66;4999299;28;965;-71
2022/03/13 11:29:39;;;;;;;;;;;;;;;22.84;13.62;98809.50;4999183;28;951;-72
2022/03/13 11:32:25;;;;;;;;;;;;;;;22.33;14.03;98822.19;4999252;28;1029;-72
2022/03/13 11:35:13;;;;;;;;;;;;;;;22.33;13.99;98814.47;4999402;28;971;-72
2022/03/13 11:37:42;;;;;;;;;;;;;;;22.54;13.96;98826.69;4938703;29;994;-72
2022/03/13 11:40:09;;;;;;;;;;;;;;;22.38;14.05;98820.88;4900649;29;1010;-72
2022/03/13 11:42:44;;;;;;;;;;;;;;;22.08;14.33;98819.72;4899757;29;1911;-72
2022/03/13 11:45:30;;;;;;;;;;;;;;;22.30;13.99;98823.84;4900491;29;1174;-72
2022/03/13 11:47:55;;;;;;;;;;;;;;;22.32;14.19;98818.53;4885450;29;1024;-72
2022/03/13 11:50:26;;;;;;;;;;;;;;;21.98;14.08;98821.50;4863274;29;1049;-72
2022/03/13 11:53:07;;;;;;;;;;;;;;;22.69;13.78;98819.53;4860580;29;1046;-71
2022/03/13 11:55:33;;;;;;;;;;;;;;;22.09;14.43;98821.31;4847786;29;1424;-72
2022/03/13 11:58:00;;;;;;;;;;;;;;;22.11;14.39;98821.72;4847775;29;1387;-71
2022/03/13 12:00:28;;;;;;;;;;;;;;;22.47;13.84;98836.09;4826170;29;1907;-72
2022/03/13 12:03:05;;;;;;;;;;;;;;;22.60;13.67;98833.47;4826295;29;951;-72
2022/03/13 12:05:31;;;;;;;;;;;;;;;22.66;13.99;98825.28;4825929;29;1064;-73
2022/03/13 12:08:05;;;;;;;;;;;;;;;22.53;13.89;98833.56;4826253;29;1083;-72
2022/03/13 12:10:32;;;;;;;;;;;;;;;22.11;14.25;98818.88;4831169;29;1011;-72
2022/03/13 12:13:07;;;;;;;;;;;;;;;22.44;13.87;98830.50;4844704;29;1018;-72
2022/03/13 12:15:32;;;;;;;;;;;;;;;21.98;14.23;98820.69;4876920;29;962;-72
2022/03/13 12:17:58;;;;;;;;;;;;;;;22.04;14.48;98818.97;4881530;29;1070;-72
2022/03/13 12:20:28;;;;;;;;;;;;;;;22.31;14.19;98828.28;4923075;28;1010;-72
2022/03/13 12:22:54;;;;;;;;;;;;;;;22.08;14.25;98828.22;4976600;28;993;-72
2022/03/13 12:25:23;;;;;;;;;;;;;;;22.50;14.02;98828.78;4976621;28;1066;-72
2022/03/13 12:27:49;;;;;;;;;;;;;;;22.72;13.83;98832.84;4956918;29;1011;-72
2022/03/13 12:30:15;;;;;;;;;;;;;;;22.32;13.98;98824.19;4940613;29;980;-72
2022/03/13 12:32:41;;;;;;;;;;;;;;;22.82;13.76;98831.03;4954500;29;1044;-72
2022/03/13 12:35:07;;;;;;;;;;;;;;;22.41;14.26;98837.03;4957225;29;995;-72
2022/03/13 12:37:33;;;;;;;;;;;;;;;22.47;13.93;98840.97;4963759;28;989;-72
2022/03/13 12:40:00;;;;;;;;;;;;;;;22.49;14.16;98838.53;4928346;28;960;-72
2022/03/13 12:42:26;;;;;;;;;;;;;;;22.22;14.19;98842.19;4976021;28;1918;-72
2022/03/13 12:45:08;;;;;;;;;;;;;;;22.45;13.92;98849.13;4976209;28;977;-72
2022/03/13 12:47:36;;;;;;;;;;;;;;;22.08;14.32;98843.19;4943626;28;1156;-72
2022/03/13 12:50:01;;;;;;;;;;;;;;;22.57;13.93;98857.81;4976147;28;1059;-72
2022/03/13 12:52:27;;;;;;;;;;;;;;;22.15;14.64;98853.63;4976065;28;1012;-72
2022/03/13 12:54:54;;;;;;;;;;;;;;;22.41;14.44;98856.88;4975403;28;951;-72
2022/03/13 12:57:20;;;;;;;;;;;;;;;22.27;14.57;98855.88;4975994;28;997;-72
2022/03/13 12:59:48;;;;;;;;;;;;;;;22.26;14.16;98854.28;4975093;28;932;-72